createdAt,value
2019-03-05T00:01:11.386Z,99268.36
2019-03-05T00:03:39.922Z,99273.08
2019-03-05T00:06:08.344Z,99276.74
2019-03-05T00:08:36.765Z,99274.28
2019-03-05T00:11:05.583Z,99275.44
2019-03-05T00:13:34.005Z,99270.53
2019-03-05T00:16:02.661Z,99276.31
2019-03-05T00:18:31.109Z,99270.36
2019-03-05T00:20:59.856Z,99274.25
2019-03-05T00:23:49.115Z,99275.65
2019-03-05T00:26:21.000Z,99262.33
2019-03-05T00:28:52.744Z,99264.84
2019-03-05T00:31:30.538Z,99272.38
2019-03-05T00:34:04.874Z,99270.61
2019-03-05T00:36:45.299Z,99274.52
2019-03-05T00:39:28.875Z,99267.89
2019-03-05T00:42:16.985Z,99268.77
2019-03-05T00:44:54.518Z,99272.09
2019-03-05T00:47:34.878Z,99282.98
2019-03-05T00:50:15.142Z,99281.92
2019-03-05T00:52:49.268Z,99284.39
2019-03-05T00:55:23.973Z,99289.38
2019-03-05T00:57:55.469Z,99291.05
2019-03-05T01:00:29.678Z,99290.97
2019-03-05T01:03:17.922Z,99287.44
2019-03-05T01:05:58.549Z,99292.14
2019-03-05T01:08:28.037Z,99290.75
2019-03-05T01:10:56.532Z,99284.74
2019-03-05T01:13:25.562Z,99293.02
2019-03-05T01:15:54.158Z,99288.18
2019-03-05T01:18:22.574Z,99284.23
2019-03-05T01:20:51.243Z,99279.23
2019-03-05T01:23:20.509Z,99287.41
2019-03-05T01:25:48.926Z,99279.39
2019-03-05T01:28:17.416Z,99280.39
2019-03-05T01:31:04.561Z,99276.07
2019-03-05T01:33:49.693Z,99282.80
2019-03-05T01:36:22.268Z,99287.03
2019-03-05T01:38:58.330Z,99296.09
2019-03-05T01:41:26.778Z,99286.40
2019-03-05T01:43:55.366Z,99280.98
2019-03-05T01:46:23.795Z,99285.91
2019-03-05T01:48:52.630Z,99287.34
2019-03-05T01:51:21.050Z,99283.17
2019-03-05T01:53:49.465Z,99282.57
2019-03-05T01:56:17.980Z,99286.27
2019-03-05T01:58:46.401Z,99288.09
2019-03-05T02:01:14.896Z,99290.74
2019-03-05T02:03:43.486Z,99285.66
2019-03-05T02:06:11.903Z,99292.22
2019-03-05T02:08:40.672Z,99290.34
2019-03-05T02:11:09.812Z,99301.20
2019-03-05T02:13:38.518Z,99297.19
2019-03-05T02:16:06.957Z,99297.55
2019-03-05T02:18:35.403Z,99301.62
2019-03-05T02:21:03.828Z,99309.03
2019-03-05T02:23:35.298Z,99304.56
2019-03-05T02:26:21.627Z,99296.38
2019-03-05T02:29:01.785Z,99294.36
2019-03-05T02:31:42.524Z,99290.59
2019-03-05T02:34:25.973Z,99283.70
2019-03-05T02:37:06.312Z,99284.56
2019-03-05T02:39:58.652Z,99282.67
2019-03-05T02:42:41.771Z,99289.84
2019-03-05T02:45:31.600Z,99294.05
2019-03-05T02:48:22.372Z,99292.98
2019-03-05T02:50:57.126Z,99298.88
2019-03-05T02:53:46.568Z,99305.22
2019-03-05T02:56:26.898Z,99299.17
2019-03-05T02:58:54.494Z,99301.75
2019-03-05T03:01:39.660Z,99306.70
2019-03-05T03:04:15.941Z,99299.33
2019-03-05T03:06:44.360Z,99305.28
2019-03-05T03:09:52.785Z,99308.13
2019-03-05T03:12:21.213Z,99300.39
2019-03-05T03:14:49.631Z,99306.59
2019-03-05T03:19:51.670Z,99291.55
2019-03-05T03:22:20.083Z,99303.08
2019-03-05T03:24:48.528Z,99294.15
2019-03-05T03:27:16.941Z,99294.31
2019-03-05T03:29:45.367Z,99306.13
2019-03-05T03:32:13.812Z,99302.83
2019-03-05T03:34:42.228Z,99297.00
2019-03-05T03:37:10.654Z,99301.72
2019-03-05T03:42:32.839Z,99304.52
2019-03-05T03:45:01.285Z,99310.63
2019-03-05T03:47:29.703Z,99303.98
2019-03-05T03:49:58.395Z,99305.47
2019-03-05T03:52:27.182Z,99308.55
2019-03-05T03:54:55.670Z,99302.78
2019-03-05T03:57:24.106Z,99303.03
2019-03-05T03:59:52.688Z,99303.84
2019-03-05T04:02:21.221Z,99304.17
2019-03-05T04:04:49.695Z,99309.92
2019-03-05T04:07:18.480Z,99307.02
2019-03-05T04:09:46.898Z,99309.17
2019-03-05T04:12:15.314Z,99310.94
2019-03-05T04:14:43.759Z,99316.78
2019-03-05T04:17:12.242Z,99325.16
2019-03-05T04:19:40.678Z,99325.48
2019-03-05T04:22:09.127Z,99330.80
2019-03-05T04:24:37.609Z,99333.33
2019-03-05T04:27:06.033Z,99335.78
2019-03-05T04:29:34.476Z,99340.72
2019-03-05T04:32:02.902Z,99340.64
2019-03-05T04:34:31.665Z,99340.36
2019-03-05T04:37:00.198Z,99344.33
2019-03-05T04:39:28.615Z,99350.56
2019-03-05T04:41:57.108Z,99346.15
2019-03-05T04:44:27.331Z,99345.59
2019-03-05T04:46:55.747Z,99341.38
2019-03-05T04:49:28.520Z,99346.69
2019-03-05T04:52:04.718Z,99343.77
2019-03-05T04:54:33.145Z,99345.81
2019-03-05T04:57:01.929Z,99340.78
2019-03-05T04:59:30.388Z,99343.84
2019-03-05T05:01:59.115Z,99344.04
2019-03-05T05:04:27.559Z,99335.19
2019-03-05T05:06:56.014Z,99342.19
2019-03-05T05:09:24.507Z,99345.58
2019-03-05T05:11:52.927Z,99347.78
2019-03-05T05:14:21.373Z,99348.28
2019-03-05T05:16:49.794Z,99347.42
2019-03-05T05:19:18.244Z,99351.70
2019-03-05T05:21:46.974Z,99350.42
2019-03-05T05:24:15.394Z,99345.52
2019-03-05T05:26:43.912Z,99352.98
2019-03-05T05:29:12.362Z,99359.89
2019-03-05T05:31:40.851Z,99352.42
2019-03-05T05:34:09.274Z,99349.66
2019-03-05T05:36:38.243Z,99353.39
2019-03-05T05:39:09.998Z,99356.17
2019-03-05T05:41:38.786Z,99347.03
2019-03-05T05:44:07.233Z,99352.98
2019-03-05T05:46:35.970Z,99343.28
2019-03-05T05:49:04.387Z,99345.92
2019-03-05T05:51:32.844Z,99342.05
2019-03-05T05:54:01.275Z,99339.67
2019-03-05T05:56:29.985Z,99330.94
2019-03-05T05:58:58.526Z,99334.84
2019-03-05T06:01:26.971Z,99340.28
2019-03-05T06:03:55.389Z,99338.59
2019-03-05T06:06:23.921Z,99342.83
2019-03-05T06:08:52.699Z,99332.95
2019-03-05T06:11:21.184Z,99332.20
2019-03-05T06:13:49.626Z,99342.37
2019-03-05T06:16:18.050Z,99336.52
2019-03-05T06:18:46.463Z,99342.56
2019-03-05T06:21:15.226Z,99342.75
2019-03-05T06:23:43.646Z,99347.83
2019-03-05T06:26:12.961Z,99352.43
2019-03-05T06:28:41.406Z,99355.67
2019-03-05T06:31:09.824Z,99349.17
2019-03-05T06:33:38.406Z,99351.50
2019-03-05T06:36:06.850Z,99346.67
2019-03-05T06:38:35.340Z,99352.82
2019-03-05T06:41:03.825Z,99349.77
2019-03-05T06:43:32.282Z,99344.29
2019-03-05T06:46:00.703Z,99341.05
2019-03-05T06:48:29.129Z,99339.71
2019-03-05T06:50:57.583Z,99343.07
2019-03-05T06:53:26.067Z,99341.50
2019-03-05T06:55:54.486Z,99335.70
2019-03-05T06:58:22.929Z,99340.52
2019-03-05T07:00:51.353Z,99349.43
2019-03-05T07:03:19.867Z,99349.16
2019-03-05T07:06:24.846Z,99353.22
2019-03-05T07:08:58.847Z,99357.55
2019-03-05T07:11:33.064Z,99352.77
2019-03-05T07:14:04.534Z,99363.00
2019-03-05T07:16:57.668Z,99346.52
2019-03-05T07:19:28.626Z,99346.42
2019-03-05T07:22:03.537Z,99344.50
2019-03-05T07:24:45.634Z,99341.91
2019-03-05T07:27:16.321Z,99363.15
2019-03-05T07:29:44.836Z,99358.97
2019-03-05T07:32:13.748Z,99356.54
2019-03-05T07:34:46.953Z,99349.17
2019-03-05T07:37:15.727Z,99351.65
2019-03-05T07:39:44.150Z,99350.53
2019-03-05T07:42:12.603Z,99350.71
2019-03-05T07:44:41.017Z,99353.23
2019-03-05T07:47:09.437Z,99353.05
2019-03-05T07:49:43.693Z,99343.80
2019-03-05T07:52:08.107Z,99345.31
2019-03-05T07:54:36.632Z,99335.70
2019-03-05T07:57:05.636Z,99345.96
2019-03-05T07:59:34.049Z,99349.89
2019-03-05T08:02:02.540Z,99346.81
2019-03-05T08:04:31.084Z,99347.45
2019-03-05T08:06:59.569Z,99350.10
2019-03-05T08:09:38.578Z,99365.69
2019-03-05T08:12:28.389Z,99369.90
2019-03-05T08:15:00.456Z,99361.45
2019-03-05T08:17:29.006Z,99362.52
2019-03-05T08:19:57.577Z,99354.31
2019-03-05T08:22:26.062Z,99351.19
2019-03-05T08:24:54.581Z,99355.27
2019-03-05T08:27:22.998Z,99367.30
2019-03-05T08:29:51.527Z,99363.03
2019-03-05T08:32:19.942Z,99358.44
2019-03-05T08:34:48.447Z,99354.81
2019-03-05T08:37:16.905Z,99366.97
2019-03-05T08:39:45.393Z,99357.00
2019-03-05T08:42:13.878Z,99364.81
2019-03-05T08:44:50.317Z,99361.39
2019-03-05T08:47:12.821Z,99368.23
2019-03-05T08:49:41.244Z,99363.75
2019-03-05T08:52:09.707Z,99377.83
2019-03-05T08:54:38.119Z,99369.56
2019-03-05T08:57:06.705Z,99368.36
2019-03-05T08:59:35.601Z,99367.87
2019-03-05T09:02:04.120Z,99376.45
2019-03-05T09:04:32.631Z,99369.00
2019-03-05T09:07:01.151Z,99374.84
2019-03-05T09:09:29.664Z,99374.38
2019-03-05T09:11:58.250Z,99381.46
2019-03-05T09:14:26.928Z,99363.42
2019-03-05T09:16:55.755Z,99382.27
2019-03-05T09:19:24.201Z,99381.88
2019-03-05T09:21:52.890Z,99389.12
2019-03-05T09:24:21.450Z,99396.46
2019-03-05T09:26:51.453Z,99388.31
2019-03-05T09:29:20.258Z,99393.55
2019-03-05T09:31:48.700Z,99402.76
2019-03-05T09:34:17.156Z,99403.11
2019-03-05T09:36:51.086Z,99410.73
2019-03-05T09:39:15.957Z,99415.03
2019-03-05T09:41:44.749Z,99419.73
2019-03-05T09:44:13.438Z,99410.45
2019-03-05T09:46:41.880Z,99428.77
2019-03-05T09:49:10.325Z,99438.55
2019-03-05T09:51:38.806Z,99449.52
2019-03-05T09:54:26.523Z,99451.20
2019-03-05T09:56:55.000Z,99452.55
2019-03-05T09:59:23.465Z,99446.09
2019-03-05T10:01:51.895Z,99446.74
2019-03-05T10:04:20.396Z,99450.53
2019-03-05T10:07:28.759Z,99453.85
2019-03-05T10:12:50.026Z,99456.70
2019-03-05T10:15:58.522Z,99456.68
2019-03-05T10:18:26.966Z,99447.39
2019-03-05T10:21:14.769Z,99448.27
2019-03-05T10:24:23.133Z,99445.13
2019-03-05T10:26:51.724Z,99446.30
2019-03-05T10:29:39.365Z,99449.34
2019-03-05T10:35:22.266Z,99447.97
2019-03-05T10:41:38.907Z,99444.87
2019-03-05T10:50:29.783Z,99454.52
2019-03-05T10:53:38.262Z,99447.88
2019-03-05T10:56:46.623Z,99447.16
2019-03-05T10:59:15.173Z,99454.66
2019-03-05T11:02:23.536Z,99452.05
2019-03-05T11:05:11.337Z,99446.32
2019-03-05T11:11:28.010Z,99447.66
2019-03-05T11:14:16.166Z,99448.80
2019-03-05T11:16:44.933Z,99456.80
2019-03-05T11:19:32.709Z,99454.61
2019-03-05T11:22:20.461Z,99454.33
2019-03-05T11:24:48.917Z,99446.13
2019-03-05T11:27:17.352Z,99443.00
2019-03-05T11:30:05.031Z,99449.77
2019-03-05T11:32:33.781Z,99460.30
2019-03-05T11:35:21.457Z,99461.22
2019-03-05T11:38:09.595Z,99465.77
2019-03-05T11:43:33.353Z,99480.13
2019-03-05T11:46:21.185Z,99469.48
2019-03-05T11:48:49.760Z,99479.92
2019-03-05T11:51:18.344Z,99475.02
2019-03-05T11:54:06.034Z,99469.59
2019-03-05T11:56:34.549Z,99481.13
2019-03-05T11:59:22.358Z,99483.41
2019-03-05T12:02:21.049Z,99479.35
2019-03-05T12:07:34.131Z,99485.19
2019-03-05T12:10:21.801Z,99484.28
2019-03-05T12:13:09.565Z,99489.17
2019-03-05T12:16:18.000Z,99490.04
2019-03-05T12:18:46.416Z,99493.80
2019-03-05T12:21:14.861Z,99483.22
2019-03-05T12:26:36.888Z,99488.25
2019-03-05T12:29:45.311Z,99487.49
2019-03-05T12:32:15.407Z,99495.11
2019-03-05T12:35:03.349Z,99481.17
2019-03-05T12:37:31.788Z,99496.99
2019-03-05T12:40:00.393Z,99495.98
2019-03-05T12:45:44.396Z,99500.76
2019-03-05T12:50:46.635Z,99502.08
2019-03-05T12:53:34.445Z,99504.00
2019-03-05T12:56:24.178Z,99503.98
2019-03-05T13:01:25.908Z,99506.57
2019-03-05T13:03:54.352Z,99524.39
2019-03-05T13:06:22.865Z,99517.21
2019-03-05T13:11:38.780Z,99517.75
2019-03-05T13:14:11.223Z,99524.26
2019-03-05T13:16:39.466Z,99517.86
2019-03-05T13:22:00.756Z,99525.63
2019-03-05T13:24:29.208Z,99520.23
2019-03-05T13:26:57.873Z,99523.27
2019-03-05T13:29:26.408Z,99520.70
2019-03-05T13:31:54.865Z,99522.48
2019-03-05T13:34:23.369Z,99521.97
2019-03-05T13:36:51.825Z,99523.34
2019-03-05T13:39:22.379Z,99529.05
2019-03-05T13:41:53.763Z,99526.91
2019-03-05T13:44:32.126Z,99525.76
2019-03-05T13:47:04.590Z,99535.89
2019-03-05T13:49:40.611Z,99532.78
2019-03-05T13:52:36.089Z,99536.59
2019-03-05T13:55:36.400Z,99544.00
2019-03-05T13:58:13.544Z,99546.38
2019-03-05T14:00:42.949Z,99551.22
2019-03-05T14:03:17.472Z,99548.58
2019-03-05T14:06:20.709Z,99550.98
2019-03-05T14:09:15.168Z,99553.33
2019-03-05T14:11:45.526Z,99556.27
2019-03-05T14:14:19.664Z,99556.23
2019-03-05T14:16:50.140Z,99559.78
2019-03-05T14:19:18.683Z,99559.49
2019-03-05T14:21:47.382Z,99562.70
2019-03-05T14:24:16.137Z,99571.52
2019-03-05T14:26:45.984Z,99570.23
2019-03-05T14:29:14.417Z,99572.23
2019-03-05T14:31:43.673Z,99573.53
2019-03-05T14:34:12.201Z,99572.17
2019-03-05T14:36:40.835Z,99575.11
2019-03-05T14:39:25.507Z,99576.73
2019-03-05T14:41:54.415Z,99581.41
2019-03-05T14:44:23.109Z,99584.55
2019-03-05T14:46:56.847Z,99582.26
2019-03-05T14:49:25.495Z,99585.72
2019-03-05T14:51:53.916Z,99581.06
2019-03-05T14:54:22.494Z,99587.21
2019-03-05T14:56:51.162Z,99597.36
2019-03-05T14:59:20.243Z,99595.77
2019-03-05T15:01:49.174Z,99596.05
2019-03-05T15:04:17.643Z,99606.06
2019-03-05T15:06:46.125Z,99601.80
2019-03-05T15:09:14.926Z,99606.06
2019-03-05T15:11:43.468Z,99601.98
2019-03-05T15:14:11.973Z,99606.53
2019-03-05T15:16:40.480Z,99606.53
2019-03-05T15:19:20.624Z,99606.48
2019-03-05T15:21:39.144Z,99599.63
2019-03-05T15:24:07.665Z,99606.88
2019-03-05T15:26:36.085Z,99598.41
2019-03-05T15:29:04.948Z,99596.95
2019-03-05T15:31:33.416Z,99596.28
2019-03-05T15:34:01.908Z,99598.82
2019-03-05T15:36:30.712Z,99600.47
2019-03-05T15:38:59.159Z,99591.73
2019-03-05T15:41:27.867Z,99594.65
2019-03-05T15:43:56.448Z,99589.42
2019-03-05T15:46:25.030Z,99595.46
2019-03-05T15:48:53.457Z,99594.73
2019-03-05T15:51:22.301Z,99591.52
2019-03-05T15:53:50.867Z,99591.52
2019-03-05T15:56:19.520Z,99586.73
2019-03-05T15:58:47.969Z,99590.43
2019-03-05T16:01:22.178Z,99593.83
2019-03-05T16:03:47.648Z,99594.87
2019-03-05T16:06:16.129Z,99598.80
2019-03-05T16:08:44.595Z,99603.58
2019-03-05T16:11:13.082Z,99607.85
2019-03-05T16:13:41.856Z,99611.72
2019-03-05T16:16:10.384Z,99608.83
2019-03-05T16:18:39.416Z,99611.94
2019-03-05T16:21:09.108Z,99619.90
2019-03-05T16:23:37.823Z,99625.33
2019-03-05T16:26:06.449Z,99629.98
2019-03-05T16:28:34.984Z,99633.80
2019-03-05T16:31:11.352Z,99636.04
2019-03-05T16:33:40.094Z,99638.64
2019-03-05T16:36:25.534Z,99639.32
2019-03-05T16:39:00.202Z,99650.11
2019-03-05T16:41:30.429Z,99658.25
2019-03-05T16:44:03.236Z,99652.00
2019-03-05T16:46:39.601Z,99650.78
2019-03-05T16:49:18.646Z,99659.09
2019-03-05T16:52:04.065Z,99657.66
2019-03-05T16:54:34.330Z,99657.63
2019-03-05T16:57:17.271Z,99667.77
2019-03-05T16:59:53.545Z,99676.41
2019-03-05T17:02:29.635Z,99671.14
2019-03-05T17:05:12.483Z,99672.47
2019-03-05T17:07:42.899Z,99682.08
2019-03-05T17:10:31.392Z,99681.84
2019-03-05T17:13:00.730Z,99689.88
2019-03-05T17:15:29.341Z,99692.53
2019-03-05T17:17:58.062Z,99694.64
2019-03-05T17:20:26.778Z,99708.04
2019-03-05T17:22:55.783Z,99710.70
2019-03-05T17:25:24.598Z,99701.87
2019-03-05T17:27:53.894Z,99700.27
2019-03-05T17:30:22.878Z,99710.80
2019-03-05T17:32:51.675Z,99718.33
2019-03-05T17:35:20.412Z,99722.11
2019-03-05T17:37:49.178Z,99726.91
2019-03-05T17:40:17.852Z,99726.25
2019-03-05T17:42:46.535Z,99725.11
2019-03-05T17:45:20.847Z,99730.06
2019-03-05T17:47:49.472Z,99734.53
2019-03-05T17:50:18.212Z,99747.75
2019-03-05T17:52:46.936Z,99751.30
2019-03-05T17:55:24.111Z,99754.28
2019-03-05T17:57:48.662Z,99765.47
2019-03-05T18:00:21.555Z,99763.28
2019-03-05T18:02:50.196Z,99760.27
2019-03-05T18:05:19.174Z,99768.69
2019-03-05T18:07:47.924Z,99776.16
2019-03-05T18:10:16.844Z,99782.39
2019-03-05T18:12:45.610Z,99784.24
2019-03-05T18:15:16.152Z,99791.52
2019-03-05T18:17:44.794Z,99799.16
2019-03-05T18:20:18.581Z,99803.61
2019-03-05T18:22:51.064Z,99803.34
2019-03-05T18:25:19.995Z,99816.84
2019-03-05T18:27:50.331Z,99817.09
2019-03-05T18:30:24.683Z,99813.47
2019-03-05T18:32:53.331Z,99812.25
2019-03-05T18:35:23.938Z,99822.82
2019-03-05T18:37:52.784Z,99823.70
2019-03-05T18:40:23.704Z,99829.61
2019-03-05T18:42:52.373Z,99833.72
2019-03-05T18:45:25.050Z,99829.52
2019-03-05T18:47:54.775Z,99839.00
2019-03-05T18:50:23.542Z,99835.21
2019-03-05T18:52:53.881Z,99842.70
2019-03-05T18:55:24.116Z,99847.18
2019-03-05T18:57:52.910Z,99841.39
2019-03-05T19:00:23.499Z,99847.69
2019-03-05T19:02:53.947Z,99846.97
2019-03-05T19:05:22.914Z,99846.34
2019-03-05T19:07:52.490Z,99851.70
2019-03-05T19:10:27.480Z,99856.71
2019-03-05T19:12:57.042Z,99854.53
2019-03-05T19:15:26.886Z,99853.06
2019-03-05T19:17:58.654Z,99860.43
2019-03-05T19:20:33.848Z,99859.08
2019-03-05T19:23:03.457Z,99852.50
2019-03-05T19:25:36.531Z,99858.09
2019-03-05T19:28:44.890Z,99861.15
2019-03-05T19:31:15.690Z,99860.97
2019-03-05T19:34:24.343Z,99865.27
2019-03-05T19:37:12.478Z,99876.11
2019-03-05T19:40:02.720Z,99873.59
2019-03-05T19:42:50.525Z,99876.61
2019-03-05T19:45:19.266Z,99877.77
2019-03-05T19:48:07.040Z,99877.99
2019-03-05T19:50:55.030Z,99884.75
2019-03-05T19:56:32.202Z,99894.45
2019-03-05T19:59:20.039Z,99893.19
2019-03-05T20:04:42.057Z,99892.90
2019-03-05T20:12:52.107Z,99886.95
2019-03-05T20:18:34.628Z,99889.83
2019-03-05T20:32:32.318Z,99890.14
2019-03-05T20:38:14.010Z,99891.03
2019-03-05T20:41:02.697Z,99883.58
2019-03-05T20:43:31.356Z,99885.13
2019-03-05T20:51:54.071Z,99885.22
2019-03-05T20:57:16.036Z,99875.86
2019-03-05T20:59:44.924Z,99886.30
2019-03-05T21:02:13.673Z,99884.88
2019-03-05T21:05:01.545Z,99884.72
2019-03-05T21:07:51.205Z,99884.38
2019-03-05T21:10:59.623Z,99887.90
2019-03-05T21:13:47.552Z,99889.34
2019-03-05T21:16:35.308Z,99895.11
2019-03-05T21:19:23.161Z,99891.70
2019-03-05T21:22:11.773Z,99889.84
2019-03-05T21:24:59.709Z,99893.40
2019-03-05T21:27:47.525Z,99892.05
2019-03-05T21:33:28.601Z,99894.61
2019-03-05T21:36:16.613Z,99884.57
2019-03-05T21:41:38.531Z,99886.53
2019-03-05T21:44:27.139Z,99888.67
2019-03-05T21:47:16.952Z,99888.30
2019-03-05T21:55:54.442Z,99893.09
2019-03-05T22:01:10.424Z,99893.08
2019-03-05T22:03:38.869Z,99898.39
2019-03-05T22:06:07.428Z,99898.14
2019-03-05T22:08:36.072Z,99894.09
2019-03-05T22:11:04.817Z,99889.89
2019-03-05T22:13:33.375Z,99895.63
2019-03-05T22:16:21.059Z,99892.66
2019-03-05T22:18:49.820Z,99889.09
2019-03-05T22:21:37.553Z,99886.82
2019-03-05T22:24:27.042Z,99886.01
2019-03-05T22:26:55.529Z,99879.89
2019-03-05T22:29:24.090Z,99885.23
2019-03-05T22:32:12.070Z,99886.03
2019-03-05T22:34:59.838Z,99884.93
2019-03-05T22:40:22.649Z,99890.54
2019-03-05T22:42:51.528Z,99890.15
2019-03-05T22:46:00.012Z,99887.13
2019-03-05T22:51:02.308Z,99884.20
2019-03-05T22:53:31.048Z,99882.89
2019-03-05T22:55:59.906Z,99889.43
2019-03-05T22:58:47.546Z,99889.34
2019-03-05T23:01:56.019Z,99881.45
2019-03-05T23:05:04.384Z,99885.65
2019-03-05T23:08:12.901Z,99876.44
2019-03-05T23:10:41.693Z,99872.25
2019-03-05T23:13:10.396Z,99872.00
2019-03-05T23:15:58.191Z,99871.68
2019-03-05T23:19:06.664Z,99869.91
2019-03-05T23:27:06.357Z,99860.70
2019-03-05T23:29:54.408Z,99860.16
2019-03-05T23:32:22.990Z,99846.38
2019-03-05T23:35:31.363Z,99851.56
2019-03-05T23:38:19.050Z,99856.42
2019-03-05T23:41:08.485Z,99858.03
2019-03-05T23:44:17.826Z,99868.88
2019-03-05T23:47:05.600Z,99870.61
2019-03-05T23:50:14.289Z,99865.97
2019-03-05T23:58:44.522Z,99846.68
